createdAt,value
2018-07-04T00:01:50.626Z,8.40
2018-07-04T00:04:36.803Z,8.53
2018-07-04T00:07:22.970Z,8.80
2018-07-04T00:10:09.150Z,10.50
2018-07-04T00:12:55.249Z,10.70
2018-07-04T00:15:41.389Z,16.20
2018-07-04T00:18:27.709Z,13.60
2018-07-04T00:21:14.410Z,13.10
2018-07-04T00:24:00.470Z,12.60
2018-07-04T00:26:47.131Z,12.20
2018-07-04T00:29:33.135Z,10.70
2018-07-04T00:32:19.266Z,9.63
2018-07-04T00:35:07.203Z,11.43
2018-07-04T00:37:53.410Z,10.50
2018-07-04T00:40:40.194Z,11.80
2018-07-04T00:43:20.294Z,12.07
2018-07-04T00:46:06.438Z,12.03
2018-07-04T00:48:52.798Z,13.50
2018-07-04T00:51:39.214Z,12.57
2018-07-04T00:54:25.495Z,11.10
2018-07-04T00:57:12.262Z,15.00
2018-07-04T00:59:52.126Z,12.60
2018-07-04T01:02:38.286Z,11.77
2018-07-04T01:05:24.314Z,12.13
2018-07-04T01:08:10.510Z,12.10
2018-07-04T01:10:57.318Z,12.77
2018-07-04T01:13:43.386Z,12.27
2018-07-04T01:16:29.402Z,12.30
2018-07-04T01:19:15.338Z,11.93
2018-07-04T01:22:01.472Z,15.47
2018-07-04T01:24:41.647Z,13.37
2018-07-04T01:27:27.670Z,11.37
2018-07-04T01:30:13.901Z,17.80
2018-07-04T01:32:59.978Z,13.53
2018-07-04T01:35:46.163Z,14.90
2018-07-04T01:38:32.110Z,15.57
2018-07-04T01:41:18.305Z,14.10
2018-07-04T01:44:04.426Z,12.63
2018-07-04T01:46:50.661Z,11.80
2018-07-04T01:49:36.678Z,13.53
2018-07-04T01:52:23.539Z,15.30
2018-07-04T01:55:09.529Z,12.90
2018-07-04T01:57:56.020Z,11.80
2018-07-04T02:00:42.023Z,13.20
2018-07-04T02:03:28.218Z,12.23
2018-07-04T02:06:14.286Z,11.90
2018-07-04T02:09:01.015Z,12.10
2018-07-04T02:11:47.055Z,13.37
2018-07-04T02:14:33.226Z,15.13
2018-07-04T02:17:19.281Z,13.50
2018-07-04T02:20:05.364Z,12.10
2018-07-04T02:22:53.489Z,10.23
2018-07-04T02:25:40.849Z,10.20
2018-07-04T02:28:28.238Z,12.10
2018-07-04T02:31:14.559Z,10.43
2018-07-04T02:34:00.935Z,11.10
2018-07-04T02:36:40.959Z,12.90
2018-07-04T02:39:27.221Z,12.90
2018-07-04T02:42:13.322Z,12.90
2018-07-04T02:44:59.517Z,13.10
2018-07-04T02:47:45.678Z,16.63
2018-07-04T02:50:31.846Z,15.97
2018-07-04T02:53:18.014Z,12.00
2018-07-04T02:56:04.196Z,13.17
2018-07-04T02:58:50.350Z,13.80
2018-07-04T03:01:36.555Z,12.20
2018-07-04T03:04:22.736Z,16.63
2018-07-04T03:07:09.013Z,15.70
2018-07-04T03:09:54.966Z,12.67
2018-07-04T03:12:41.002Z,12.73
2018-07-04T03:15:27.037Z,13.50
2018-07-04T03:18:13.197Z,16.33
2018-07-04T03:20:59.556Z,12.03
2018-07-04T03:23:45.690Z,13.50
2018-07-04T03:26:26.327Z,11.10
2018-07-04T03:29:12.322Z,12.40
2018-07-04T03:31:58.519Z,13.50
2018-07-04T03:34:44.553Z,21.60
2018-07-04T03:37:31.007Z,14.43
2018-07-04T03:40:17.099Z,12.23
2018-07-04T03:43:03.274Z,11.00
2018-07-04T03:45:49.323Z,11.30
2018-07-04T03:48:36.279Z,12.80
2018-07-04T03:51:24.738Z,14.90
2018-07-04T03:54:10.766Z,13.70
2018-07-04T03:56:56.871Z,11.50
2018-07-04T03:59:43.328Z,13.80
2018-07-04T04:02:29.486Z,16.00
2018-07-04T04:05:15.811Z,10.90
2018-07-04T04:08:02.143Z,11.67
2018-07-04T04:10:42.623Z,11.63
2018-07-04T04:13:29.350Z,14.77
2018-07-04T04:16:15.397Z,14.00
2018-07-04T04:19:01.594Z,13.60
2018-07-04T04:21:47.793Z,12.23
2018-07-04T04:24:33.760Z,10.27
2018-07-04T04:27:14.258Z,10.57
2018-07-04T04:30:00.223Z,10.27
2018-07-04T04:32:46.339Z,9.47
2018-07-04T04:35:32.414Z,10.43
2018-07-04T04:38:18.590Z,9.80
2018-07-04T04:41:04.808Z,9.87
2018-07-04T04:43:51.679Z,9.60
2018-07-04T04:46:37.768Z,13.90
2018-07-04T04:49:23.965Z,10.30
2018-07-04T04:52:09.995Z,13.23
2018-07-04T04:54:56.775Z,8.90
2018-07-04T04:57:42.883Z,10.97
2018-07-04T05:00:28.970Z,11.90
2018-07-04T05:03:15.258Z,11.67
2018-07-04T05:06:01.504Z,10.30
2018-07-04T05:08:47.694Z,12.43
2018-07-04T05:11:33.858Z,13.40
2018-07-04T05:14:19.898Z,9.60
2018-07-04T05:17:06.695Z,18.00
2018-07-04T05:19:52.807Z,11.03
2018-07-04T05:22:39.036Z,14.73
2018-07-04T05:25:25.154Z,13.00
2018-07-04T05:28:12.700Z,10.50
2018-07-04T05:30:59.626Z,10.87
2018-07-04T05:33:46.402Z,11.43
2018-07-04T05:36:33.323Z,14.03
2018-07-04T05:39:13.370Z,10.70
2018-07-04T05:41:59.293Z,19.77
2018-07-04T05:44:45.317Z,12.67
2018-07-04T05:47:31.548Z,11.97
2018-07-04T05:50:17.594Z,10.30
2018-07-04T05:53:03.998Z,13.30
2018-07-04T05:55:50.272Z,17.03
2018-07-04T05:58:36.334Z,10.20
2018-07-04T06:01:22.542Z,12.80
2018-07-04T06:04:08.595Z,17.60
2018-07-04T06:06:55.075Z,13.73
2018-07-04T06:09:41.118Z,9.80
2018-07-04T06:12:27.291Z,13.33
2018-07-04T06:15:13.464Z,10.37
2018-07-04T06:17:59.551Z,13.10
2018-07-04T06:20:45.637Z,12.40
2018-07-04T06:23:31.731Z,10.80
2018-07-04T06:26:17.903Z,10.70
2018-07-04T06:29:05.371Z,13.97
2018-07-04T06:31:52.305Z,8.10
2018-07-04T06:34:38.488Z,22.20
2018-07-04T06:37:24.865Z,13.60
2018-07-04T06:39:52.548Z,9.80
2018-07-04T06:42:21.281Z,11.27
2018-07-04T06:44:50.194Z,9.17
2018-07-04T06:47:18.987Z,11.27
2018-07-04T06:49:46.659Z,10.30
2018-07-04T06:52:14.402Z,9.27
2018-07-04T06:54:43.754Z,10.20
2018-07-04T06:57:11.794Z,9.83
2018-07-04T06:59:39.643Z,17.90
2018-07-04T07:02:12.235Z,14.13
2018-07-04T07:04:53.609Z,10.13
2018-07-04T07:07:39.662Z,14.13
2018-07-04T07:10:26.357Z,8.40
2018-07-04T07:13:13.686Z,10.03
2018-07-04T07:16:00.630Z,9.97
2018-07-04T07:18:48.636Z,9.80
2018-07-04T07:21:35.262Z,11.87
2018-07-04T07:24:22.943Z,10.13
2018-07-04T07:27:10.130Z,9.73
2018-07-04T07:29:57.153Z,10.53
2018-07-04T07:32:46.587Z,13.43
2018-07-04T07:35:32.723Z,10.30
2018-07-04T07:38:18.887Z,7.70
2018-07-04T07:41:04.811Z,11.50
2018-07-04T07:43:50.942Z,11.30
2018-07-04T07:46:37.115Z,8.73
2018-07-04T07:49:23.157Z,7.43
2018-07-04T07:52:03.239Z,18.43
2018-07-04T07:54:49.203Z,9.30
2018-07-04T07:57:35.251Z,8.80
2018-07-04T08:00:21.592Z,7.17
2018-07-04T08:03:07.672Z,7.90
2018-07-04T08:05:53.864Z,8.30
2018-07-04T08:08:39.923Z,10.97
2018-07-04T08:11:26.754Z,8.10
2018-07-04T08:14:12.977Z,12.80
2018-07-04T08:16:53.947Z,8.53
2018-07-04T08:19:39.958Z,11.77
2018-07-04T08:22:26.142Z,7.87
2018-07-04T08:25:12.207Z,8.70
2018-07-04T08:27:58.263Z,7.13
2018-07-04T08:30:44.417Z,14.07
2018-07-04T08:33:31.380Z,6.43
2018-07-04T08:36:18.520Z,7.40
2018-07-04T08:38:58.968Z,7.13
2018-07-04T08:41:45.132Z,7.23
2018-07-04T08:44:31.950Z,13.97
2018-07-04T08:47:13.939Z,7.03
2018-07-04T08:50:02.671Z,6.30
2018-07-04T08:52:49.503Z,6.97
2018-07-04T08:55:36.035Z,10.03
2018-07-04T08:58:23.201Z,7.73
2018-07-04T09:01:09.533Z,5.53
2018-07-04T09:03:56.695Z,7.60
2018-07-04T09:06:38.555Z,6.33
2018-07-04T09:09:24.884Z,7.23
2018-07-04T09:12:11.154Z,6.90
2018-07-04T09:14:51.468Z,10.60
2018-07-04T09:17:37.704Z,6.43
2018-07-04T09:20:17.818Z,6.33
2018-07-04T09:23:04.218Z,7.30
2018-07-04T09:25:50.430Z,8.83
2018-07-04T09:28:31.497Z,6.60
2018-07-04T09:31:17.586Z,7.30
2018-07-04T09:34:03.948Z,8.00
2018-07-04T09:36:51.259Z,8.43
2018-07-04T09:39:37.923Z,7.63
2018-07-04T09:42:18.422Z,7.37
2018-07-04T09:45:04.534Z,9.03
2018-07-04T09:47:50.623Z,9.10
2018-07-04T09:50:37.194Z,8.20
2018-07-04T09:53:23.349Z,7.93
2018-07-04T09:56:09.414Z,9.70
2018-07-04T09:58:55.582Z,8.63
2018-07-04T10:01:41.674Z,9.60
2018-07-04T10:04:28.255Z,7.50
2018-07-04T10:07:15.299Z,7.60
2018-07-04T10:10:02.075Z,9.20
2018-07-04T10:12:48.636Z,15.53
2018-07-04T10:15:34.958Z,17.13
2018-07-04T10:18:15.356Z,9.67
2018-07-04T10:21:01.339Z,14.67
2018-07-04T10:23:47.390Z,12.40
2018-07-04T10:26:33.562Z,22.63
2018-07-04T10:29:19.708Z,15.13
2018-07-04T10:32:06.210Z,11.47
2018-07-04T10:34:52.439Z,10.17
2018-07-04T10:37:38.515Z,12.50
2018-07-04T10:40:18.650Z,14.90
2018-07-04T10:43:04.766Z,13.23
2018-07-04T10:45:51.234Z,13.20
2018-07-04T10:48:37.283Z,9.43
2018-07-04T10:51:23.462Z,12.50
2018-07-04T10:54:09.546Z,11.37
2018-07-04T10:56:55.725Z,17.80
2018-07-04T10:59:41.783Z,10.70
2018-07-04T11:02:27.933Z,9.57
2018-07-04T11:05:13.955Z,12.03
2018-07-04T11:08:00.044Z,10.20
2018-07-04T11:10:46.070Z,9.53
2018-07-04T11:13:32.280Z,11.73
2018-07-04T11:16:19.422Z,11.53
2018-07-04T11:19:05.854Z,11.47
2018-07-04T11:21:52.986Z,12.20
2018-07-04T11:24:38.999Z,17.90
2018-07-04T11:27:25.071Z,15.07
2018-07-04T11:30:11.193Z,15.77
2018-07-04T11:32:57.327Z,19.63
2018-07-04T11:35:43.534Z,10.10
2018-07-04T11:38:29.852Z,13.30
2018-07-04T11:41:16.671Z,21.43
2018-07-04T11:44:02.698Z,15.63
2018-07-04T11:46:30.996Z,14.60
2018-07-04T11:49:00.542Z,15.20
2018-07-04T11:51:28.197Z,16.37
2018-07-04T11:53:56.038Z,16.43
2018-07-04T11:56:23.677Z,15.47
2018-07-04T11:58:51.330Z,15.50
2018-07-04T12:01:19.003Z,18.87
2018-07-04T12:04:05.207Z,17.10
2018-07-04T12:06:51.386Z,15.40
2018-07-04T12:09:19.033Z,13.30
2018-07-04T12:11:46.726Z,20.77
2018-07-04T12:14:14.424Z,12.30
2018-07-04T12:16:42.094Z,12.03
2018-07-04T12:19:09.734Z,16.63
2018-07-04T12:21:38.007Z,9.67
2018-07-04T12:24:05.645Z,11.73
2018-07-04T12:26:33.741Z,10.10
2018-07-04T12:29:01.432Z,14.13
2018-07-04T12:31:29.062Z,11.53
2018-07-04T12:33:57.662Z,10.07
2018-07-04T12:36:25.325Z,9.77
2018-07-04T12:38:53.454Z,13.90
2018-07-04T12:41:21.086Z,12.00
2018-07-04T12:43:48.829Z,11.90
2018-07-04T12:46:16.450Z,8.67
2018-07-04T12:48:44.282Z,10.33
2018-07-04T12:51:12.471Z,10.13
2018-07-04T12:53:40.376Z,8.87
2018-07-04T12:56:26.522Z,7.97
2018-07-04T12:59:12.702Z,9.07
2018-07-04T13:01:58.966Z,8.53
2018-07-04T13:04:45.718Z,8.23
2018-07-04T13:07:31.938Z,9.00
2018-07-04T13:10:19.257Z,9.70
2018-07-04T13:13:06.181Z,10.30
2018-07-04T13:15:53.359Z,8.70
2018-07-04T13:18:39.659Z,8.03
2018-07-04T13:21:26.697Z,7.37
2018-07-04T13:24:14.703Z,10.20
2018-07-04T13:27:01.838Z,15.87
2018-07-04T13:29:48.146Z,11.47
2018-07-04T13:32:34.357Z,7.10
2018-07-04T13:35:20.614Z,7.33
2018-07-04T13:38:01.943Z,9.50
2018-07-04T13:40:47.966Z,9.10
2018-07-04T13:43:28.519Z,8.00
2018-07-04T13:46:08.693Z,7.97
2018-07-04T13:48:54.722Z,8.43
2018-07-04T13:51:40.750Z,8.10
2018-07-04T13:54:26.881Z,8.70
2018-07-04T13:57:12.779Z,7.67
2018-07-04T13:59:58.864Z,8.87
2018-07-04T14:02:45.133Z,7.83
2018-07-04T14:05:31.102Z,8.23
2018-07-04T14:08:11.402Z,7.80
2018-07-04T14:10:57.551Z,9.40
2018-07-04T14:13:43.642Z,8.10
2018-07-04T14:16:29.728Z,7.47
2018-07-04T14:19:15.865Z,7.03
2018-07-04T14:22:01.922Z,8.40
2018-07-04T14:24:48.038Z,7.80
2018-07-04T14:27:34.197Z,7.93
2018-07-04T14:30:20.438Z,7.60
2018-07-04T14:33:06.530Z,8.07
2018-07-04T14:35:52.642Z,11.33
2018-07-04T14:38:39.266Z,8.00
2018-07-04T14:41:25.348Z,8.10
2018-07-04T14:44:12.910Z,8.60
2018-07-04T14:46:59.538Z,12.27
2018-07-04T14:49:48.514Z,9.17
2018-07-04T14:52:35.641Z,10.83
2018-07-04T14:55:15.913Z,9.60
2018-07-04T14:58:02.066Z,11.23
2018-07-04T15:00:48.922Z,9.40
2018-07-04T15:03:35.063Z,7.63
2018-07-04T15:06:21.176Z,6.10
2018-07-04T15:09:08.766Z,9.70
2018-07-04T15:11:54.866Z,7.83
2018-07-04T15:14:41.007Z,6.93
2018-07-04T15:17:27.194Z,5.93
2018-07-04T15:20:13.334Z,4.60
2018-07-04T15:22:59.510Z,6.43
2018-07-04T15:25:45.635Z,5.40
2018-07-04T15:28:31.710Z,8.63
2018-07-04T15:31:17.794Z,5.00
2018-07-04T15:34:03.974Z,8.13
2018-07-04T15:36:49.877Z,8.90
2018-07-04T15:39:35.993Z,7.30
2018-07-04T15:42:22.140Z,6.53
2018-07-04T15:45:08.334Z,10.63
2018-07-04T15:47:54.462Z,6.97
2018-07-04T15:50:40.482Z,6.93
2018-07-04T15:53:26.603Z,8.80
2018-07-04T15:56:12.774Z,7.80
2018-07-04T15:58:58.931Z,9.53
2018-07-04T16:01:45.085Z,8.27
2018-07-04T16:04:31.235Z,6.30
2018-07-04T16:07:17.594Z,7.50
2018-07-04T16:09:58.506Z,6.70
2018-07-04T16:12:44.626Z,8.47
2018-07-04T16:15:30.872Z,11.83
2018-07-04T16:18:16.899Z,11.70
2018-07-04T16:21:03.047Z,10.40
2018-07-04T16:23:49.089Z,8.10
2018-07-04T16:26:35.303Z,9.93
2018-07-04T16:29:21.391Z,7.47
2018-07-04T16:32:07.571Z,12.80
2018-07-04T16:34:53.661Z,8.00
2018-07-04T16:37:39.891Z,9.40
2018-07-04T16:40:25.973Z,11.90
2018-07-04T16:43:12.137Z,15.40
2018-07-04T16:45:58.163Z,11.00
2018-07-04T16:48:44.218Z,15.77
2018-07-04T16:51:30.370Z,11.43
2018-07-04T16:54:17.667Z,12.83
2018-07-04T16:56:58.245Z,11.00
2018-07-04T16:59:44.398Z,11.40
2018-07-04T17:02:30.430Z,10.67
2018-07-04T17:05:16.463Z,13.70
2018-07-04T17:08:02.516Z,12.83
2018-07-04T17:10:48.551Z,11.00
2018-07-04T17:13:34.695Z,11.33
2018-07-04T17:16:20.806Z,13.20
2018-07-04T17:19:06.962Z,12.00
2018-07-04T17:21:52.993Z,13.10
2018-07-04T17:24:39.051Z,11.00
2018-07-04T17:27:25.096Z,9.80
2018-07-04T17:30:11.318Z,10.47
2018-07-04T17:32:57.474Z,11.57
2018-07-04T17:35:43.610Z,11.50
2018-07-04T17:38:11.437Z,10.90
2018-07-04T17:40:57.634Z,7.43
2018-07-04T17:43:44.682Z,9.13
2018-07-04T17:46:31.185Z,9.70
2018-07-04T17:49:17.419Z,11.53
2018-07-04T17:52:03.881Z,11.30
2018-07-04T17:54:51.654Z,8.80
2018-07-04T17:57:38.239Z,10.67
2018-07-04T18:00:24.902Z,9.53
2018-07-04T18:03:11.215Z,11.23
2018-07-04T18:05:58.839Z,11.33
2018-07-04T18:08:40.355Z,12.83
2018-07-04T18:11:26.622Z,10.50
2018-07-04T18:14:12.770Z,10.70
2018-07-04T18:16:58.922Z,9.07
2018-07-04T18:19:45.576Z,10.07
2018-07-04T18:22:31.826Z,10.93
2018-07-04T18:25:18.250Z,9.23
2018-07-04T18:28:04.619Z,12.20
2018-07-04T18:30:52.295Z,9.43
2018-07-04T18:33:39.627Z,13.50
2018-07-04T18:36:25.746Z,10.20
2018-07-04T18:39:12.178Z,11.00
2018-07-04T18:41:58.484Z,11.50
2018-07-04T18:44:26.999Z,16.70
2018-07-04T18:47:13.392Z,15.87
2018-07-04T18:49:59.674Z,15.07
2018-07-04T18:52:40.162Z,12.23
2018-07-04T18:55:26.278Z,11.40
2018-07-04T18:58:14.161Z,13.17
2018-07-04T19:01:00.434Z,13.73
2018-07-04T19:03:47.518Z,13.20
2018-07-04T19:06:27.583Z,12.63
2018-07-04T19:09:15.202Z,14.40
2018-07-04T19:12:01.630Z,13.27
2018-07-04T19:14:48.664Z,12.93
2018-07-04T19:17:35.019Z,12.77
2018-07-04T19:20:15.014Z,13.77
2018-07-04T19:22:55.392Z,14.43
2018-07-04T19:25:41.686Z,16.80
2018-07-04T19:28:27.893Z,12.83
2018-07-04T19:31:14.059Z,14.27
2018-07-04T19:34:00.015Z,13.00
2018-07-04T19:36:46.102Z,11.57
2018-07-04T19:39:32.211Z,13.47
2018-07-04T19:42:18.574Z,11.47
2018-07-04T19:45:05.510Z,12.33
2018-07-04T19:47:51.689Z,11.60
2018-07-04T19:50:34.234Z,11.50
2018-07-04T19:53:15.134Z,14.50
2018-07-04T19:56:01.891Z,14.90
2018-07-04T19:58:48.012Z,15.73
2018-07-04T20:01:34.084Z,13.00
2018-07-04T20:04:21.666Z,15.50
2018-07-04T20:07:08.587Z,13.73
2018-07-04T20:09:56.537Z,13.63
2018-07-04T20:12:36.919Z,10.50
2018-07-04T20:15:23.686Z,13.60
2018-07-04T20:18:09.567Z,12.57
2018-07-04T20:20:55.727Z,12.20
2018-07-04T20:23:41.790Z,12.30
2018-07-04T20:26:27.935Z,12.67
2018-07-04T20:29:14.057Z,13.50
2018-07-04T20:32:00.142Z,12.83
2018-07-04T20:34:40.526Z,13.80
2018-07-04T20:37:20.839Z,16.73
2018-07-04T20:40:06.998Z,18.23
2018-07-04T20:42:53.054Z,13.00
2018-07-04T20:45:39.182Z,14.83
2018-07-04T20:48:26.438Z,15.90
2018-07-04T20:51:13.222Z,15.17
2018-07-04T20:54:00.839Z,13.57
2018-07-04T20:56:47.417Z,13.70
2018-07-04T20:59:34.537Z,13.60
2018-07-04T21:02:21.701Z,15.43
2018-07-04T21:05:08.867Z,16.47
2018-07-04T21:07:55.219Z,15.17
2018-07-04T21:10:42.064Z,13.40
2018-07-04T21:13:28.292Z,13.73
2018-07-04T21:16:14.710Z,15.87
2018-07-04T21:19:01.041Z,14.90
2018-07-04T21:21:47.491Z,15.20
2018-07-04T21:24:34.243Z,13.83
2018-07-04T21:27:21.207Z,15.63
2018-07-04T21:30:07.846Z,21.30
2018-07-04T21:32:47.934Z,16.23
2018-07-04T21:35:34.058Z,14.83
2018-07-04T21:38:20.075Z,14.80
2018-07-04T21:41:06.127Z,13.70
2018-07-04T21:43:52.932Z,14.47
2018-07-04T21:46:33.690Z,14.20
2018-07-04T21:49:20.917Z,15.23
2018-07-04T21:52:08.338Z,14.63
2018-07-04T21:54:55.406Z,17.83
2018-07-04T21:57:41.894Z,16.50
2018-07-04T22:00:28.884Z,13.03
2018-07-04T22:03:16.102Z,19.23
2018-07-04T22:06:03.172Z,14.40
2018-07-04T22:08:49.627Z,15.97
2018-07-04T22:11:37.538Z,16.10
2018-07-04T22:14:30.154Z,16.30
2018-07-04T22:17:17.403Z,14.93
2018-07-04T22:20:03.906Z,14.73
2018-07-04T22:22:50.474Z,15.37
2018-07-04T22:25:37.183Z,22.57
2018-07-04T22:28:24.302Z,16.17
2018-07-04T22:31:10.750Z,16.07
2018-07-04T22:33:56.838Z,20.13
2018-07-04T22:36:43.039Z,18.17
2018-07-04T22:39:29.102Z,18.30
2018-07-04T22:42:15.231Z,16.57
2018-07-04T22:45:01.419Z,17.83
2018-07-04T22:47:48.335Z,15.20
2018-07-04T22:50:34.359Z,16.50
2018-07-04T22:53:20.605Z,16.10
2018-07-04T22:56:06.715Z,18.90
2018-07-04T22:58:53.511Z,15.10
2018-07-04T23:01:39.760Z,17.03
2018-07-04T23:04:26.078Z,20.80
2018-07-04T23:07:12.347Z,16.60
2018-07-04T23:09:58.918Z,16.77
2018-07-04T23:12:45.767Z,19.67
2018-07-04T23:15:25.930Z,19.10
2018-07-04T23:18:12.074Z,25.53
2018-07-04T23:20:58.286Z,18.20
2018-07-04T23:23:44.482Z,17.63
2018-07-04T23:26:31.702Z,19.87
2018-07-04T23:29:17.851Z,16.13
2018-07-04T23:32:04.070Z,18.00
2018-07-04T23:34:50.270Z,17.43
2018-07-04T23:37:36.502Z,18.03
2018-07-04T23:40:22.846Z,18.40
2018-07-04T23:43:09.101Z,16.47
2018-07-04T23:45:55.207Z,17.80
2018-07-04T23:48:41.270Z,18.00
2018-07-04T23:51:27.314Z,17.40
2018-07-04T23:54:13.963Z,17.17
2018-07-04T23:56:59.996Z,18.07
2018-07-04T23:59:46.363Z,19.33
